sensor_id;sensor_type;location;lat;lon;timestamp;temperature;humidity
34406;DHT22;20658;45.630;8.886;2023-07-20T00:00:24;26.80;79.10
34406;DHT22;20658;45.630;8.886;2023-07-20T00:03:12;26.80;79.70
34406;DHT22;20658;45.630;8.886;2023-07-20T00:05:48;26.70;80.40
34406;DHT22;20658;45.630;8.886;2023-07-20T00:08:22;26.70;80.80
34406;DHT22;20658;45.630;8.886;2023-07-20T00:10:56;26.70;81.10
34406;DHT22;20658;45.630;8.886;2023-07-20T00:13:30;26.60;81.50
34406;DHT22;20658;45.630;8.886;2023-07-20T00:16:04;26.60;82.50
34406;DHT22;20658;45.630;8.886;2023-07-20T00:18:39;26.40;83.50
34406;DHT22;20658;45.630;8.886;2023-07-20T00:21:13;26.30;83.40
34406;DHT22;20658;45.630;8.886;2023-07-20T00:23:46;26.20;82.60
34406;DHT22;20658;45.630;8.886;2023-07-20T00:26:20;26.10;80.60
34406;DHT22;20658;45.630;8.886;2023-07-20T00:28:53;26.00;79.40
34406;DHT22;20658;45.630;8.886;2023-07-20T00:31:27;25.90;78.60
34406;DHT22;20658;45.630;8.886;2023-07-20T00:34:03;25.80;79.00
34406;DHT22;20658;45.630;8.886;2023-07-20T00:36:39;25.70;79.50
34406;DHT22;20658;45.630;8.886;2023-07-20T00:39:13;25.60;79.90
34406;DHT22;20658;45.630;8.886;2023-07-20T00:41:47;25.60;80.00
34406;DHT22;20658;45.630;8.886;2023-07-20T00:44:20;25.60;80.10
34406;DHT22;20658;45.630;8.886;2023-07-20T00:46:54;25.50;80.90
34406;DHT22;20658;45.630;8.886;2023-07-20T00:49:29;25.40;81.80
34406;DHT22;20658;45.630;8.886;2023-07-20T00:52:06;25.30;82.30
34406;DHT22;20658;45.630;8.886;2023-07-20T00:54:43;25.40;82.70
34406;DHT22;20658;45.630;8.886;2023-07-20T00:57:17;25.30;83.20
34406;DHT22;20658;45.630;8.886;2023-07-20T00:59:52;25.30;83.40
34406;DHT22;20658;45.630;8.886;2023-07-20T01:02:25;25.20;84.30
34406;DHT22;20658;45.630;8.886;2023-07-20T01:05:01;25.20;84.30
34406;DHT22;20658;45.630;8.886;2023-07-20T01:07:38;25.20;84.40
34406;DHT22;20658;45.630;8.886;2023-07-20T01:10:20;25.20;84.70
34406;DHT22;20658;45.630;8.886;2023-07-20T01:12:58;25.10;84.90
34406;DHT22;20658;45.630;8.886;2023-07-20T01:15:34;25.10;84.70
34406;DHT22;20658;45.630;8.886;2023-07-20T01:18:07;25.10;85.00
34406;DHT22;20658;45.630;8.886;2023-07-20T01:20:45;25.00;85.00
34406;DHT22;20658;45.630;8.886;2023-07-20T01:23:26;25.00;84.70
34406;DHT22;20658;45.630;8.886;2023-07-20T01:26:17;25.00;84.20
34406;DHT22;20658;45.630;8.886;2023-07-20T01:29:31;25.00;83.70
34406;DHT22;20658;45.630;8.886;2023-07-20T01:32:14;24.90;82.90
34406;DHT22;20658;45.630;8.886;2023-07-20T01:34:53;24.90;82.50
34406;DHT22;20658;45.630;8.886;2023-07-20T01:37:27;24.80;82.30
34406;DHT22;20658;45.630;8.886;2023-07-20T01:40:01;24.80;81.90
34406;DHT22;20658;45.630;8.886;2023-07-20T01:42:35;24.70;81.70
34406;DHT22;20658;45.630;8.886;2023-07-20T01:45:10;24.70;81.60
34406;DHT22;20658;45.630;8.886;2023-07-20T01:47:45;24.60;81.60
34406;DHT22;20658;45.630;8.886;2023-07-20T01:50:18;24.60;81.90
34406;DHT22;20658;45.630;8.886;2023-07-20T01:52:52;24.50;81.90
34406;DHT22;20658;45.630;8.886;2023-07-20T01:55:25;24.50;81.90
34406;DHT22;20658;45.630;8.886;2023-07-20T01:57:59;24.50;81.90
34406;DHT22;20658;45.630;8.886;2023-07-20T02:00:33;24.40;81.80
34406;DHT22;20658;45.630;8.886;2023-07-20T02:03:08;24.30;81.70
34406;DHT22;20658;45.630;8.886;2023-07-20T02:05:44;24.30;82.00
34406;DHT22;20658;45.630;8.886;2023-07-20T02:08:17;24.30;82.20
34406;DHT22;20658;45.630;8.886;2023-07-20T02:10:51;24.20;82.10
34406;DHT22;20658;45.630;8.886;2023-07-20T02:13:25;24.20;82.40
34406;DHT22;20658;45.630;8.886;2023-07-20T02:15:58;24.10;82.40
34406;DHT22;20658;45.630;8.886;2023-07-20T02:18:33;24.10;82.30
34406;DHT22;20658;45.630;8.886;2023-07-20T02:21:07;24.00;82.40
34406;DHT22;20658;45.630;8.886;2023-07-20T02:23:41;24.00;82.40
34406;DHT22;20658;45.630;8.886;2023-07-20T02:26:15;24.00;82.50
34406;DHT22;20658;45.630;8.886;2023-07-20T02:28:48;23.90;82.60
34406;DHT22;20658;45.630;8.886;2023-07-20T02:31:22;23.90;82.80
34406;DHT22;20658;45.630;8.886;2023-07-20T02:33:57;23.90;82.70
34406;DHT22;20658;45.630;8.886;2023-07-20T02:36:30;23.80;82.70
34406;DHT22;20658;45.630;8.886;2023-07-20T02:39:04;23.80;82.70
34406;DHT22;20658;45.630;8.886;2023-07-20T02:41:38;23.80;83.10
34406;DHT22;20658;45.630;8.886;2023-07-20T02:44:14;23.80;83.40
34406;DHT22;20658;45.630;8.886;2023-07-20T02:46:48;23.70;83.60
34406;DHT22;20658;45.630;8.886;2023-07-20T02:49:23;23.70;84.30
34406;DHT22;20658;45.630;8.886;2023-07-20T02:51:57;23.70;84.30
34406;DHT22;20658;45.630;8.886;2023-07-20T02:54:31;23.70;84.30
34406;DHT22;20658;45.630;8.886;2023-07-20T02:57:05;23.70;84.50
34406;DHT22;20658;45.630;8.886;2023-07-20T02:59:38;23.70;84.60
34406;DHT22;20658;45.630;8.886;2023-07-20T03:02:12;23.60;84.70
34406;DHT22;20658;45.630;8.886;2023-07-20T03:04:47;23.60;85.10
34406;DHT22;20658;45.630;8.886;2023-07-20T03:07:20;23.60;84.80
34406;DHT22;20658;45.630;8.886;2023-07-20T03:09:54;23.60;85.10
34406;DHT22;20658;45.630;8.886;2023-07-20T03:12:29;23.60;85.40
34406;DHT22;20658;45.630;8.886;2023-07-20T03:15:03;23.50;85.70
34406;DHT22;20658;45.630;8.886;2023-07-20T03:17:39;23.50;86.20
34406;DHT22;20658;45.630;8.886;2023-07-20T03:20:14;23.60;86.10
34406;DHT22;20658;45.630;8.886;2023-07-20T03:22:47;23.70;85.90
34406;DHT22;20658;45.630;8.886;2023-07-20T03:25:21;23.80;85.60
34406;DHT22;20658;45.630;8.886;2023-07-20T03:27:49;23.70;85.80
34406;DHT22;20658;45.630;8.886;2023-07-20T03:30:23;23.50;86.70
34406;DHT22;20658;45.630;8.886;2023-07-20T03:32:57;23.50;87.20
34406;DHT22;20658;45.630;8.886;2023-07-20T03:35:32;23.40;87.40
34406;DHT22;20658;45.630;8.886;2023-07-20T03:38:05;23.40;87.80
34406;DHT22;20658;45.630;8.886;2023-07-20T03:40:39;23.40;87.70
34406;DHT22;20658;45.630;8.886;2023-07-20T03:43:23;23.40;87.80
34406;DHT22;20658;45.630;8.886;2023-07-20T03:45:57;23.30;88.20
34406;DHT22;20658;45.630;8.886;2023-07-20T03:48:30;23.30;88.40
34406;DHT22;20658;45.630;8.886;2023-07-20T03:51:05;23.30;88.40
34406;DHT22;20658;45.630;8.886;2023-07-20T03:53:39;23.30;88.40
34406;DHT22;20658;45.630;8.886;2023-07-20T03:56:12;23.30;88.70
34406;DHT22;20658;45.630;8.886;2023-07-20T03:58:46;23.20;88.90
34406;DHT22;20658;45.630;8.886;2023-07-20T04:01:19;23.30;89.20
34406;DHT22;20658;45.630;8.886;2023-07-20T04:03:53;23.20;89.30
34406;DHT22;20658;45.630;8.886;2023-07-20T04:06:28;23.20;89.40
34406;DHT22;20658;45.630;8.886;2023-07-20T04:09:03;23.20;89.60
34406;DHT22;20658;45.630;8.886;2023-07-20T04:11:37;23.20;89.50
34406;DHT22;20658;45.630;8.886;2023-07-20T04:14:12;23.20;89.70
34406;DHT22;20658;45.630;8.886;2023-07-20T04:16:46;23.20;89.60
34406;DHT22;20658;45.630;8.886;2023-07-20T04:19:20;23.30;89.60
34406;DHT22;20658;45.630;8.886;2023-07-20T04:21:55;23.30;89.70
34406;DHT22;20658;45.630;8.886;2023-07-20T04:24:29;23.20;89.60
34406;DHT22;20658;45.630;8.886;2023-07-20T04:26:58;23.30;89.60
34406;DHT22;20658;45.630;8.886;2023-07-20T04:29:31;23.30;89.70
34406;DHT22;20658;45.630;8.886;2023-07-20T04:32:06;23.30;89.90
34406;DHT22;20658;45.630;8.886;2023-07-20T04:34:40;23.30;90.00
34406;DHT22;20658;45.630;8.886;2023-07-20T04:37:15;23.30;90.10
34406;DHT22;20658;45.630;8.886;2023-07-20T04:39:49;23.40;90.00
34406;DHT22;20658;45.630;8.886;2023-07-20T04:42:23;23.30;90.00
34406;DHT22;20658;45.630;8.886;2023-07-20T04:44:57;23.40;90.00
34406;DHT22;20658;45.630;8.886;2023-07-20T04:47:31;23.40;89.90
34406;DHT22;20658;45.630;8.886;2023-07-20T04:50:05;23.40;90.00
34406;DHT22;20658;45.630;8.886;2023-07-20T04:52:41;23.40;90.20
34406;DHT22;20658;45.630;8.886;2023-07-20T04:55:18;23.40;90.40
34406;DHT22;20658;45.630;8.886;2023-07-20T04:57:52;23.40;90.60
34406;DHT22;20658;45.630;8.886;2023-07-20T05:00:25;23.40;90.50
34406;DHT22;20658;45.630;8.886;2023-07-20T05:02:59;23.50;90.50
34406;DHT22;20658;45.630;8.886;2023-07-20T05:05:33;23.70;89.90
34406;DHT22;20658;45.630;8.886;2023-07-20T05:08:08;23.80;89.30
34406;DHT22;20658;45.630;8.886;2023-07-20T05:10:41;24.00;88.70
34406;DHT22;20658;45.630;8.886;2023-07-20T05:13:15;24.30;87.60
34406;DHT22;20658;45.630;8.886;2023-07-20T05:15:51;24.50;86.50
34406;DHT22;20658;45.630;8.886;2023-07-20T05:18:25;24.50;86.30
34406;DHT22;20658;45.630;8.886;2023-07-20T05:20:59;24.30;87.00
34406;DHT22;20658;45.630;8.886;2023-07-20T05:23:34;24.30;87.60
34406;DHT22;20658;45.630;8.886;2023-07-20T05:26:08;24.40;86.60
34406;DHT22;20658;45.630;8.886;2023-07-20T05:28:42;24.40;86.30
34406;DHT22;20658;45.630;8.886;2023-07-20T05:31:10;24.40;86.70
34406;DHT22;20658;45.630;8.886;2023-07-20T05:33:44;24.70;85.80
34406;DHT22;20658;45.630;8.886;2023-07-20T05:36:18;24.90;84.70
34406;DHT22;20658;45.630;8.886;2023-07-20T05:38:53;25.10;83.60
34406;DHT22;20658;45.630;8.886;2023-07-20T05:41:26;25.30;82.50
34406;DHT22;20658;45.630;8.886;2023-07-20T05:43:59;25.60;80.70
34406;DHT22;20658;45.630;8.886;2023-07-20T05:46:33;25.70;80.40
34406;DHT22;20658;45.630;8.886;2023-07-20T05:49:07;25.90;79.10
34406;DHT22;20658;45.630;8.886;2023-07-20T05:51:40;26.10;78.40
34406;DHT22;20658;45.630;8.886;2023-07-20T05:54:15;26.00;78.40
34406;DHT22;20658;45.630;8.886;2023-07-20T05:56:48;26.00;78.20
34406;DHT22;20658;45.630;8.886;2023-07-20T05:59:22;26.40;77.60
34406;DHT22;20658;45.630;8.886;2023-07-20T06:01:55;26.40;76.90
34406;DHT22;20658;45.630;8.886;2023-07-20T06:04:29;26.50;76.10
34406;DHT22;20658;45.630;8.886;2023-07-20T06:07:03;26.60;76.00
34406;DHT22;20658;45.630;8.886;2023-07-20T06:09:37;26.70;75.30
34406;DHT22;20658;45.630;8.886;2023-07-20T06:12:11;26.70;74.90
34406;DHT22;20658;45.630;8.886;2023-07-20T06:14:44;26.60;75.50
34406;DHT22;20658;45.630;8.886;2023-07-20T06:17:18;26.80;74.90
34406;DHT22;20658;45.630;8.886;2023-07-20T06:19:51;26.90;74.10
34406;DHT22;20658;45.630;8.886;2023-07-20T06:22:25;27.20;73.80
34406;DHT22;20658;45.630;8.886;2023-07-20T06:25:00;27.60;72.50
34406;DHT22;20658;45.630;8.886;2023-07-20T06:27:33;27.60;72.00
34406;DHT22;20658;45.630;8.886;2023-07-20T06:30:08;27.50;71.20
34406;DHT22;20658;45.630;8.886;2023-07-20T06:32:42;27.50;71.90
34406;DHT22;20658;45.630;8.886;2023-07-20T06:35:16;27.50;71.60
34406;DHT22;20658;45.630;8.886;2023-07-20T06:37:49;27.30;71.60
34406;DHT22;20658;45.630;8.886;2023-07-20T06:40:24;27.40;71.80
34406;DHT22;20658;45.630;8.886;2023-07-20T06:42:58;27.60;71.70
34406;DHT22;20658;45.630;8.886;2023-07-20T06:45:31;27.40;71.10
34406;DHT22;20658;45.630;8.886;2023-07-20T06:48:05;27.40;70.80
34406;DHT22;20658;45.630;8.886;2023-07-20T06:50:39;27.60;70.30
34406;DHT22;20658;45.630;8.886;2023-07-20T06:53:12;27.60;69.70
34406;DHT22;20658;45.630;8.886;2023-07-20T06:55:47;27.70;69.30
34406;DHT22;20658;45.630;8.886;2023-07-20T06:58:22;27.90;68.30
34406;DHT22;20658;45.630;8.886;2023-07-20T07:00:56;28.00;67.40
34406;DHT22;20658;45.630;8.886;2023-07-20T07:03:29;28.10;67.70
34406;DHT22;20658;45.630;8.886;2023-07-20T07:06:03;28.30;67.00
34406;DHT22;20658;45.630;8.886;2023-07-20T07:08:36;28.00;67.10
34406;DHT22;20658;45.630;8.886;2023-07-20T07:11:11;28.00;66.90
34406;DHT22;20658;45.630;8.886;2023-07-20T07:13:44;28.30;66.30
34406;DHT22;20658;45.630;8.886;2023-07-20T07:16:18;28.40;65.50
34406;DHT22;20658;45.630;8.886;2023-07-20T07:18:52;28.60;64.80
34406;DHT22;20658;45.630;8.886;2023-07-20T07:21:25;28.50;64.90
34406;DHT22;20658;45.630;8.886;2023-07-20T07:23:59;28.60;64.30
34406;DHT22;20658;45.630;8.886;2023-07-20T07:26:34;28.60;64.80
34406;DHT22;20658;45.630;8.886;2023-07-20T07:29:08;29.00;63.70
34406;DHT22;20658;45.630;8.886;2023-07-20T07:31:41;28.90;63.60
34406;DHT22;20658;45.630;8.886;2023-07-20T07:34:14;29.10;63.30
34406;DHT22;20658;45.630;8.886;2023-07-20T07:36:48;29.10;63.20
34406;DHT22;20658;45.630;8.886;2023-07-20T07:39:23;29.30;62.50
34406;DHT22;20658;45.630;8.886;2023-07-20T07:41:58;29.40;60.90
34406;DHT22;20658;45.630;8.886;2023-07-20T07:44:32;29.50;61.40
34406;DHT22;20658;45.630;8.886;2023-07-20T07:47:00;29.50;60.80
34406;DHT22;20658;45.630;8.886;2023-07-20T07:49:34;29.60;60.00
34406;DHT22;20658;45.630;8.886;2023-07-20T07:52:07;29.50;60.60
34406;DHT22;20658;45.630;8.886;2023-07-20T07:54:41;29.80;59.60
34406;DHT22;20658;45.630;8.886;2023-07-20T07:57:16;29.40;60.10
34406;DHT22;20658;45.630;8.886;2023-07-20T07:59:49;29.60;59.20
34406;DHT22;20658;45.630;8.886;2023-07-20T08:02:23;29.80;58.50
34406;DHT22;20658;45.630;8.886;2023-07-20T08:04:56;30.00;57.40
34406;DHT22;20658;45.630;8.886;2023-07-20T08:07:30;30.10;57.80
34406;DHT22;20658;45.630;8.886;2023-07-20T08:10:04;30.40;56.60
34406;DHT22;20658;45.630;8.886;2023-07-20T08:12:40;30.40;57.70
34406;DHT22;20658;45.630;8.886;2023-07-20T08:15:14;30.30;57.40
34406;DHT22;20658;45.630;8.886;2023-07-20T08:17:47;30.40;58.00
34406;DHT22;20658;45.630;8.886;2023-07-20T08:20:23;30.40;57.50
34406;DHT22;20658;45.630;8.886;2023-07-20T08:22:58;30.50;56.20
34406;DHT22;20658;45.630;8.886;2023-07-20T08:25:32;30.70;55.30
34406;DHT22;20658;45.630;8.886;2023-07-20T08:28:07;30.50;54.90
34406;DHT22;20658;45.630;8.886;2023-07-20T08:30:42;30.70;54.40
34406;DHT22;20658;45.630;8.886;2023-07-20T08:33:17;30.60;53.30
34406;DHT22;20658;45.630;8.886;2023-07-20T08:35:52;30.60;53.00
34406;DHT22;20658;45.630;8.886;2023-07-20T08:38:25;30.80;52.70
34406;DHT22;20658;45.630;8.886;2023-07-20T08:40:59;30.70;52.30
34406;DHT22;20658;45.630;8.886;2023-07-20T08:43:36;31.00;52.30
34406;DHT22;20658;45.630;8.886;2023-07-20T08:46:11;31.00;52.60
34406;DHT22;20658;45.630;8.886;2023-07-20T08:48:46;31.00;52.70
34406;DHT22;20658;45.630;8.886;2023-07-20T08:51:21;31.20;51.80
34406;DHT22;20658;45.630;8.886;2023-07-20T08:53:54;31.30;50.20
34406;DHT22;20658;45.630;8.886;2023-07-20T08:56:29;31.60;49.80
34406;DHT22;20658;45.630;8.886;2023-07-20T08:59:07;31.70;49.40
34406;DHT22;20658;45.630;8.886;2023-07-20T09:01:41;31.30;51.20
34406;DHT22;20658;45.630;8.886;2023-07-20T09:04:15;31.50;49.60
34406;DHT22;20658;45.630;8.886;2023-07-20T09:06:49;31.70;47.20
34406;DHT22;20658;45.630;8.886;2023-07-20T09:09:23;31.70;47.60
34406;DHT22;20658;45.630;8.886;2023-07-20T09:11:57;31.90;45.80
34406;DHT22;20658;45.630;8.886;2023-07-20T09:14:32;32.20;45.10
34406;DHT22;20658;45.630;8.886;2023-07-20T09:17:05;32.40;44.60
34406;DHT22;20658;45.630;8.886;2023-07-20T09:19:42;32.10;46.40
34406;DHT22;20658;45.630;8.886;2023-07-20T09:22:18;31.80;46.60
34406;DHT22;20658;45.630;8.886;2023-07-20T09:24:53;31.80;47.30
34406;DHT22;20658;45.630;8.886;2023-07-20T09:27:34;32.00;46.80
34406;DHT22;20658;45.630;8.886;2023-07-20T09:30:11;31.90;46.70
34406;DHT22;20658;45.630;8.886;2023-07-20T09:32:48;32.10;46.90
34406;DHT22;20658;45.630;8.886;2023-07-20T09:35:23;32.30;47.10
34406;DHT22;20658;45.630;8.886;2023-07-20T09:37:58;32.20;46.00
34406;DHT22;20658;45.630;8.886;2023-07-20T09:40:37;32.30;45.80
34406;DHT22;20658;45.630;8.886;2023-07-20T09:43:11;32.20;47.10
34406;DHT22;20658;45.630;8.886;2023-07-20T09:45:46;32.20;46.80
34406;DHT22;20658;45.630;8.886;2023-07-20T09:48:24;32.40;46.60
34406;DHT22;20658;45.630;8.886;2023-07-20T09:50:58;32.10;46.50
34406;DHT22;20658;45.630;8.886;2023-07-20T09:53:33;32.10;45.50
34406;DHT22;20658;45.630;8.886;2023-07-20T09:56:07;32.20;45.10
34406;DHT22;20658;45.630;8.886;2023-07-20T09:58:43;32.20;45.30
34406;DHT22;20658;45.630;8.886;2023-07-20T10:01:20;32.40;45.10
34406;DHT22;20658;45.630;8.886;2023-07-20T10:03:58;32.50;44.10
34406;DHT22;20658;45.630;8.886;2023-07-20T10:06:34;32.70;44.20
34406;DHT22;20658;45.630;8.886;2023-07-20T10:09:10;32.70;43.90
34406;DHT22;20658;45.630;8.886;2023-07-20T10:11:50;32.90;43.60
34406;DHT22;20658;45.630;8.886;2023-07-20T10:14:24;33.10;43.90
34406;DHT22;20658;45.630;8.886;2023-07-20T10:17:01;33.00;44.90
34406;DHT22;20658;45.630;8.886;2023-07-20T10:19:42;33.10;45.60
34406;DHT22;20658;45.630;8.886;2023-07-20T10:22:19;33.00;41.80
34406;DHT22;20658;45.630;8.886;2023-07-20T10:24:58;33.40;42.40
34406;DHT22;20658;45.630;8.886;2023-07-20T10:27:32;33.90;42.80
34406;DHT22;20658;45.630;8.886;2023-07-20T10:30:07;34.10;43.70
34406;DHT22;20658;45.630;8.886;2023-07-20T10:32:43;34.00;44.00
34406;DHT22;20658;45.630;8.886;2023-07-20T10:35:18;33.00;45.00
34406;DHT22;20658;45.630;8.886;2023-07-20T10:37:53;33.00;44.70
34406;DHT22;20658;45.630;8.886;2023-07-20T10:40:29;33.10;44.50
34406;DHT22;20658;45.630;8.886;2023-07-20T10:43:05;33.10;44.70
34406;DHT22;20658;45.630;8.886;2023-07-20T10:45:41;33.10;44.30
34406;DHT22;20658;45.630;8.886;2023-07-20T10:48:19;33.10;44.80
34406;DHT22;20658;45.630;8.886;2023-07-20T10:51:11;33.40;43.90
34406;DHT22;20658;45.630;8.886;2023-07-20T10:53:48;33.80;43.90
34406;DHT22;20658;45.630;8.886;2023-07-20T10:56:23;34.00;43.70
34406;DHT22;20658;45.630;8.886;2023-07-20T10:58:58;34.10;42.80
34406;DHT22;20658;45.630;8.886;2023-07-20T11:01:36;34.60;42.60
34406;DHT22;20658;45.630;8.886;2023-07-20T11:04:11;34.80;41.40
34406;DHT22;20658;45.630;8.886;2023-07-20T11:06:45;34.90;41.10
34406;DHT22;20658;45.630;8.886;2023-07-20T11:09:22;34.80;39.80
34406;DHT22;20658;45.630;8.886;2023-07-20T11:12:09;34.80;38.90
34406;DHT22;20658;45.630;8.886;2023-07-20T11:14:54;34.90;39.60
34406;DHT22;20658;45.630;8.886;2023-07-20T11:17:29;35.00;40.40
34406;DHT22;20658;45.630;8.886;2023-07-20T11:20:05;34.90;39.70
34406;DHT22;20658;45.630;8.886;2023-07-20T11:22:40;35.10;39.70
34406;DHT22;20658;45.630;8.886;2023-07-20T11:25:15;35.00;39.20
34406;DHT22;20658;45.630;8.886;2023-07-20T11:27:48;34.90;38.50
34406;DHT22;20658;45.630;8.886;2023-07-20T11:30:22;35.30;38.90
34406;DHT22;20658;45.630;8.886;2023-07-20T11:32:56;35.60;38.50
34406;DHT22;20658;45.630;8.886;2023-07-20T11:35:31;35.70;37.90
34406;DHT22;20658;45.630;8.886;2023-07-20T11:38:08;35.50;38.00
34406;DHT22;20658;45.630;8.886;2023-07-20T11:40:45;35.00;39.30
34406;DHT22;20658;45.630;8.886;2023-07-20T11:43:19;35.00;39.20
34406;DHT22;20658;45.630;8.886;2023-07-20T11:45:55;35.00;39.30
34406;DHT22;20658;45.630;8.886;2023-07-20T11:48:28;35.40;38.90
34406;DHT22;20658;45.630;8.886;2023-07-20T11:51:03;35.80;38.10
34406;DHT22;20658;45.630;8.886;2023-07-20T11:53:37;36.10;37.70
34406;DHT22;20658;45.630;8.886;2023-07-20T11:56:11;36.40;37.30
34406;DHT22;20658;45.630;8.886;2023-07-20T11:58:42;35.90;36.30
34406;DHT22;20658;45.630;8.886;2023-07-20T12:01:17;35.60;37.50
34406;DHT22;20658;45.630;8.886;2023-07-20T12:03:52;35.70;37.60
34406;DHT22;20658;45.630;8.886;2023-07-20T12:06:31;36.00;37.50
34406;DHT22;20658;45.630;8.886;2023-07-20T12:09:05;36.20;36.90
34406;DHT22;20658;45.630;8.886;2023-07-20T12:11:39;36.10;36.40
34406;DHT22;20658;45.630;8.886;2023-07-20T12:14:12;36.00;36.60
34406;DHT22;20658;45.630;8.886;2023-07-20T12:16:52;36.20;36.70
34406;DHT22;20658;45.630;8.886;2023-07-20T12:19:26;35.60;36.10
34406;DHT22;20658;45.630;8.886;2023-07-20T12:22:01;35.90;36.40
34406;DHT22;20658;45.630;8.886;2023-07-20T12:24:35;35.90;35.40
34406;DHT22;20658;45.630;8.886;2023-07-20T12:27:09;35.90;35.40
34406;DHT22;20658;45.630;8.886;2023-07-20T12:29:46;35.90;35.40
34406;DHT22;20658;45.630;8.886;2023-07-20T12:32:20;35.90;36.00
34406;DHT22;20658;45.630;8.886;2023-07-20T12:34:53;36.00;35.80
34406;DHT22;20658;45.630;8.886;2023-07-20T12:37:28;36.40;35.00
34406;DHT22;20658;45.630;8.886;2023-07-20T12:40:02;36.20;35.80
34406;DHT22;20658;45.630;8.886;2023-07-20T12:42:36;35.90;34.60
34406;DHT22;20658;45.630;8.886;2023-07-20T12:45:11;35.80;35.40
34406;DHT22;20658;45.630;8.886;2023-07-20T12:47:43;36.40;34.60
34406;DHT22;20658;45.630;8.886;2023-07-20T12:50:17;36.10;34.90
34406;DHT22;20658;45.630;8.886;2023-07-20T12:52:52;36.10;35.00
34406;DHT22;20658;45.630;8.886;2023-07-20T12:55:27;36.40;34.30
34406;DHT22;20658;45.630;8.886;2023-07-20T12:58:01;36.90;34.20
34406;DHT22;20658;45.630;8.886;2023-07-20T13:00:35;37.30;34.20
34406;DHT22;20658;45.630;8.886;2023-07-20T13:03:08;37.70;33.60
34406;DHT22;20658;45.630;8.886;2023-07-20T13:05:42;38.10;34.10
34406;DHT22;20658;45.630;8.886;2023-07-20T13:08:17;38.00;33.30
34406;DHT22;20658;45.630;8.886;2023-07-20T13:10:51;37.90;32.90
34406;DHT22;20658;45.630;8.886;2023-07-20T13:13:25;37.80;32.00
34406;DHT22;20658;45.630;8.886;2023-07-20T13:15:58;37.80;31.60
34406;DHT22;20658;45.630;8.886;2023-07-20T13:18:32;37.70;32.30
34406;DHT22;20658;45.630;8.886;2023-07-20T13:21:05;37.90;31.80
34406;DHT22;20658;45.630;8.886;2023-07-20T13:23:43;38.20;32.10
34406;DHT22;20658;45.630;8.886;2023-07-20T13:26:17;38.40;31.60
34406;DHT22;20658;45.630;8.886;2023-07-20T13:28:50;38.50;31.40
34406;DHT22;20658;45.630;8.886;2023-07-20T13:31:24;38.60;30.60
34406;DHT22;20658;45.630;8.886;2023-07-20T13:33:58;38.60;30.30
34406;DHT22;20658;45.630;8.886;2023-07-20T13:36:31;38.50;30.00
34406;DHT22;20658;45.630;8.886;2023-07-20T13:39:06;38.20;31.00
34406;DHT22;20658;45.630;8.886;2023-07-20T13:41:40;38.40;29.80
34406;DHT22;20658;45.630;8.886;2023-07-20T13:44:14;38.60;29.80
34406;DHT22;20658;45.630;8.886;2023-07-20T13:46:47;38.90;29.70
34406;DHT22;20658;45.630;8.886;2023-07-20T13:49:21;39.00;30.10
34406;DHT22;20658;45.630;8.886;2023-07-20T13:51:55;39.00;29.50
34406;DHT22;20658;45.630;8.886;2023-07-20T13:54:30;38.90;28.70
34406;DHT22;20658;45.630;8.886;2023-07-20T13:57:04;38.90;28.90
34406;DHT22;20658;45.630;8.886;2023-07-20T13:59:38;39.10;30.00
34406;DHT22;20658;45.630;8.886;2023-07-20T14:02:11;39.20;28.90
34406;DHT22;20658;45.630;8.886;2023-07-20T14:04:46;39.00;29.20
34406;DHT22;20658;45.630;8.886;2023-07-20T14:07:20;39.20;28.70
34406;DHT22;20658;45.630;8.886;2023-07-20T14:09:55;39.30;28.50
34406;DHT22;20658;45.630;8.886;2023-07-20T14:12:29;39.50;28.40
34406;DHT22;20658;45.630;8.886;2023-07-20T14:15:03;39.80;27.40
34406;DHT22;20658;45.630;8.886;2023-07-20T14:17:37;39.50;25.60
34406;DHT22;20658;45.630;8.886;2023-07-20T14:20:11;39.70;26.20
34406;DHT22;20658;45.630;8.886;2023-07-20T14:22:45;39.70;26.50
34406;DHT22;20658;45.630;8.886;2023-07-20T14:25:21;39.70;26.20
34406;DHT22;20658;45.630;8.886;2023-07-20T14:27:54;39.50;26.30
34406;DHT22;20658;45.630;8.886;2023-07-20T14:30:28;39.50;26.50
34406;DHT22;20658;45.630;8.886;2023-07-20T14:33:01;39.70;26.70
34406;DHT22;20658;45.630;8.886;2023-07-20T14:35:35;39.50;27.20
34406;DHT22;20658;45.630;8.886;2023-07-20T14:38:09;39.50;26.90
34406;DHT22;20658;45.630;8.886;2023-07-20T14:40:44;39.60;27.10
34406;DHT22;20658;45.630;8.886;2023-07-20T14:43:17;39.60;27.50
34406;DHT22;20658;45.630;8.886;2023-07-20T14:45:51;39.40;27.40
34406;DHT22;20658;45.630;8.886;2023-07-20T14:48:26;39.30;27.90
34406;DHT22;20658;45.630;8.886;2023-07-20T14:50:59;39.50;27.90
34406;DHT22;20658;45.630;8.886;2023-07-20T14:53:33;39.70;27.30
34406;DHT22;20658;45.630;8.886;2023-07-20T14:56:08;40.00;27.40
34406;DHT22;20658;45.630;8.886;2023-07-20T14:58:42;39.80;27.50
34406;DHT22;20658;45.630;8.886;2023-07-20T15:01:15;39.80;28.50
34406;DHT22;20658;45.630;8.886;2023-07-20T15:03:49;39.70;29.50
34406;DHT22;20658;45.630;8.886;2023-07-20T15:06:25;39.60;30.20
34406;DHT22;20658;45.630;8.886;2023-07-20T15:08:58;39.80;30.50
34406;DHT22;20658;45.630;8.886;2023-07-20T15:11:34;39.80;28.70
34406;DHT22;20658;45.630;8.886;2023-07-20T15:14:08;39.90;28.40
34406;DHT22;20658;45.630;8.886;2023-07-20T15:16:42;39.70;31.60
34406;DHT22;20658;45.630;8.886;2023-07-20T15:19:15;38.80;32.50
34406;DHT22;20658;45.630;8.886;2023-07-20T15:21:49;38.30;33.20
34406;DHT22;20658;45.630;8.886;2023-07-20T15:24:22;38.60;32.90
34406;DHT22;20658;45.630;8.886;2023-07-20T15:26:57;38.80;32.10
34406;DHT22;20658;45.630;8.886;2023-07-20T15:29:31;38.70;32.90
34406;DHT22;20658;45.630;8.886;2023-07-20T15:32:05;38.30;33.80
34406;DHT22;20658;45.630;8.886;2023-07-20T15:34:40;37.80;34.40
34406;DHT22;20658;45.630;8.886;2023-07-20T15:37:13;37.70;34.10
34406;DHT22;20658;45.630;8.886;2023-07-20T15:39:48;38.00;34.20
34406;DHT22;20658;45.630;8.886;2023-07-20T15:42:23;38.30;33.90
34406;DHT22;20658;45.630;8.886;2023-07-20T15:44:57;38.60;33.60
34406;DHT22;20658;45.630;8.886;2023-07-20T15:47:32;38.70;33.30
34406;DHT22;20658;45.630;8.886;2023-07-20T15:50:06;38.70;33.30
34406;DHT22;20658;45.630;8.886;2023-07-20T15:52:40;38.70;33.10
34406;DHT22;20658;45.630;8.886;2023-07-20T15:55:13;38.80;33.10
34406;DHT22;20658;45.630;8.886;2023-07-20T15:57:48;38.90;32.60
34406;DHT22;20658;45.630;8.886;2023-07-20T16:00:22;38.80;32.30
34406;DHT22;20658;45.630;8.886;2023-07-20T16:02:56;39.00;33.30
34406;DHT22;20658;45.630;8.886;2023-07-20T16:05:29;39.20;33.10
34406;DHT22;20658;45.630;8.886;2023-07-20T16:08:03;39.10;33.00
34406;DHT22;20658;45.630;8.886;2023-07-20T16:10:37;39.10;32.90
34406;DHT22;20658;45.630;8.886;2023-07-20T16:13:18;39.30;32.30
34406;DHT22;20658;45.630;8.886;2023-07-20T16:15:51;39.10;32.30